Time;durP1;ratioP1;P1;durP2;ratioP2;P2;SDS_P1;SDS_P2;PMS_P1;PMS_P2;Temp;Humidity;BMP_temperature;BMP_pressure;BME280_temperature;BME280_humidity;BME280_pressure;Samples;Min_cycle;Max_cycle;Signal;HPM_P1;HPM_P2
2022/03/16 00:02:12;;;;;;;32.92;23.13;;;7.40;80.90;;;;;;4934108;29;20051;-66
2022/03/16 00:04:38;;;;;;;34.67;23.67;;;7.40;80.90;;;;;;4896283;29;20127;-67
2022/03/16 00:07:03;;;;;;;38.35;23.65;;;7.40;81.00;;;;;;4934857;29;20047;-67
2022/03/16 00:09:29;;;;;;;34.10;22.73;;;7.40;81.20;;;;;;4917471;29;20138;-66
2022/03/16 00:11:55;;;;;;;30.60;23.05;;;7.40;81.20;;;;;;4932538;29;20056;-66
2022/03/16 00:14:20;;;;;;;32.65;24.52;;;7.30;81.10;;;;;;4929760;29;20481;-66
2022/03/16 00:16:46;;;;;;;46.75;25.10;;;7.20;81.10;;;;;;4915647;29;20044;-66
2022/03/16 00:19:11;;;;;;;35.35;22.65;;;7.20;81.10;;;;;;4923423;29;20045;-66
2022/03/16 00:21:37;;;;;;;39.65;26.35;;;7.10;81.20;;;;;;4934139;29;20155;-67
2022/03/16 00:24:03;;;;;;;31.75;23.50;;;7.10;81.40;;;;;;4916841;29;20059;-66
2022/03/16 00:26:28;;;;;;;33.45;24.98;;;7.10;81.40;;;;;;4923314;29;20104;-66
2022/03/16 00:28:54;;;;;;;38.00;23.77;;;7.00;81.40;;;;;;4930850;29;20045;-65
2022/03/16 00:31:20;;;;;;;37.50;24.92;;;7.10;81.40;;;;;;4923766;29;20405;-67
2022/03/16 00:33:46;;;;;;;37.90;24.23;;;7.00;81.30;;;;;;4934094;29;20043;-66
2022/03/16 00:36:12;;;;;;;34.22;24.10;;;7.00;81.30;;;;;;4918463;29;20062;-66
2022/03/16 00:38:37;;;;;;;38.30;25.33;;;7.00;81.40;;;;;;4898684;29;20052;-66
2022/03/16 00:41:03;;;;;;;39.03;24.80;;;6.90;81.40;;;;;;4928778;29;20067;-66
2022/03/16 00:43:29;;;;;;;36.67;26.92;;;6.90;81.60;;;;;;4934923;29;20051;-67
2022/03/16 00:45:54;;;;;;;32.40;25.50;;;6.90;81.70;;;;;;4924024;29;20051;-67
2022/03/16 00:48:20;;;;;;;41.38;25.10;;;6.90;81.80;;;;;;4917620;29;21530;-66
2022/03/16 00:50:45;;;;;;;37.03;25.42;;;6.90;81.80;;;;;;4923258;29;20063;-66
2022/03/16 00:53:11;;;;;;;36.55;25.60;;;6.90;81.80;;;;;;4917849;29;20052;-66
2022/03/16 00:55:37;;;;;;;30.17;24.05;;;6.90;81.80;;;;;;4934239;29;20497;-65
2022/03/16 00:58:02;;;;;;;29.77;22.15;;;6.90;81.80;;;;;;4934733;29;20089;-67
2022/03/16 01:00:28;;;;;;;27.60;18.95;;;6.90;81.80;;;;;;4933911;29;20051;-66
2022/03/16 01:02:55;;;;;;;25.98;19.25;;;6.90;81.70;;;;;;4931710;29;20040;-66
2022/03/16 01:05:20;;;;;;;23.27;18.83;;;6.80;81.50;;;;;;4917179;29;20066;-67
2022/03/16 01:07:46;;;;;;;26.52;18.73;;;6.80;81.60;;;;;;4916153;29;20040;-67
2022/03/16 01:10:12;;;;;;;28.10;18.85;;;6.80;81.70;;;;;;4916841;29;20122;-66
2022/03/16 01:12:38;;;;;;;27.05;19.55;;;6.80;81.80;;;;;;4925597;29;20507;-67
2022/03/16 01:15:05;;;;;;;31.30;21.58;;;6.80;81.80;;;;;;4933340;29;20135;-68
2022/03/16 01:17:31;;;;;;;32.30;22.05;;;6.80;81.80;;;;;;4934235;29;20044;-64
2022/03/16 01:19:56;;;;;;;35.30;23.02;;;6.80;81.70;;;;;;4933961;29;20387;-67
2022/03/16 01:22:22;;;;;;;31.02;22.27;;;6.80;81.70;;;;;;4914987;29;20036;-67
2022/03/16 01:24:47;;;;;;;33.15;22.95;;;6.70;81.60;;;;;;4915853;29;20465;-66
2022/03/16 01:27:13;;;;;;;35.38;22.52;;;6.60;81.60;;;;;;4922301;29;20425;-66
2022/03/16 01:29:39;;;;;;;34.03;23.48;;;6.70;81.80;;;;;;4898590;29;20064;-66
2022/03/16 01:32:05;;;;;;;34.67;23.17;;;6.60;81.80;;;;;;4914585;29;20576;-67
2022/03/16 01:34:30;;;;;;;36.65;24.25;;;6.70;81.90;;;;;;4934287;29;20848;-66
2022/03/16 01:36:56;;;;;;;34.22;23.27;;;6.70;81.90;;;;;;4933164;29;20126;-69
2022/03/16 01:39:22;;;;;;;33.95;23.13;;;6.70;81.90;;;;;;4932295;29;20056;-66
2022/03/16 01:41:48;;;;;;;33.45;24.77;;;6.70;81.90;;;;;;4924137;29;20194;-67
2022/03/16 01:44:13;;;;;;;35.00;25.40;;;6.70;81.90;;;;;;4914536;29;20044;-68
2022/03/16 01:46:39;;;;;;;35.33;25.05;;;6.70;82.00;;;;;;4914928;29;20055;-67
2022/03/16 01:49:05;;;;;;;36.55;24.88;;;6.70;82.00;;;;;;4914830;29;20052;-67
2022/03/16 01:51:31;;;;;;;34.22;23.17;;;6.70;82.00;;;;;;4931779;29;20412;-67
2022/03/16 01:53:57;;;;;;;31.45;23.50;;;6.70;82.00;;;;;;4933247;29;20192;-67
2022/03/16 01:56:23;;;;;;;36.30;23.92;;;6.70;82.00;;;;;;4925357;29;20191;-68
2022/03/16 01:58:48;;;;;;;34.88;24.00;;;6.70;82.10;;;;;;4914030;29;20553;-66
2022/03/16 02:01:14;;;;;;;31.70;23.30;;;6.70;82.00;;;;;;4921822;29;20047;-67
2022/03/16 02:03:42;;;;;;;40.78;24.73;;;6.60;82.00;;;;;;4929219;29;20085;-67
2022/03/16 02:06:08;;;;;;;45.65;24.60;;;6.60;82.10;;;;;;4929346;29;20040;-66
2022/03/16 02:08:36;;;;;;;36.05;25.35;;;6.60;82.10;;;;;;4897208;29;20083;-65
2022/03/16 02:11:03;;;;;;;36.78;23.55;;;6.60;82.10;;;;;;4920286;29;20051;-67
2022/03/16 02:13:29;;;;;;;35.38;23.80;;;6.60;82.10;;;;;;4931933;29;20076;-67
2022/03/16 02:15:54;;;;;;;34.85;23.33;;;6.60;82.10;;;;;;4929189;29;20123;-66
2022/03/16 02:18:20;;;;;;;34.97;24.35;;;6.60;82.10;;;;;;4932619;29;20051;-66
2022/03/16 02:20:51;;;;;;;29.55;21.50;;;6.60;82.10;;;;;;4932709;29;20036;-66
2022/03/16 02:23:17;;;;;;;35.03;23.20;;;6.60;82.10;;;;;;4924438;29;20501;-66
2022/03/16 02:25:54;;;;;;;30.88;23.38;;;6.60;82.10;;;;;;4916559;29;20118;-66
2022/03/16 02:28:21;;;;;;;36.55;22.95;;;6.50;82.00;;;;;;4932227;29;20416;-65
2022/03/16 02:30:47;;;;;;;33.50;22.88;;;6.50;81.90;;;;;;4915512;29;20050;-66
2022/03/16 02:33:13;;;;;;;30.77;22.00;;;6.40;81.80;;;;;;4916069;29;20044;-66
2022/03/16 02:35:39;;;;;;;33.75;22.00;;;6.40;81.90;;;;;;4914473;29;20088;-67
2022/03/16 02:38:05;;;;;;;30.13;21.27;;;6.30;81.90;;;;;;4896994;29;20044;-67
2022/03/16 02:40:30;;;;;;;31.35;21.55;;;6.40;81.80;;;;;;4914226;29;20055;-67
2022/03/16 02:42:56;;;;;;;30.80;21.73;;;6.30;81.80;;;;;;4928099;29;20040;-67
2022/03/16 02:45:22;;;;;;;31.25;22.95;;;6.30;81.70;;;;;;4915798;29;20048;-66
2022/03/16 02:47:48;;;;;;;31.67;23.17;;;6.30;81.70;;;;;;4919956;29;20424;-66
2022/03/16 02:50:18;;;;;;;34.58;21.33;;;6.30;81.70;;;;;;4914085;29;20483;-67
2022/03/16 02:52:45;;;;;;;31.02;21.92;;;6.20;81.60;;;;;;4913983;29;20052;-66
2022/03/16 02:55:13;;;;;;;37.63;24.25;;;6.20;81.60;;;;;;4918991;29;20048;-67
2022/03/16 02:57:39;;;;;;;37.08;20.65;;;6.20;81.50;;;;;;4915906;29;20130;-66
2022/03/16 03:00:06;;;;;;;33.85;21.58;;;6.10;81.50;;;;;;4912498;29;20131;-67
2022/03/16 03:02:32;;;;;;;30.55;22.42;;;6.10;81.60;;;;;;4913318;29;20087;-66
2022/03/16 03:04:58;;;;;;;33.28;22.85;;;6.00;81.50;;;;;;4913837;29;20573;-66
2022/03/16 03:07:23;;;;;;;31.38;22.15;;;6.00;81.60;;;;;;4919913;29;20056;-67
2022/03/16 03:09:49;;;;;;;34.45;23.92;;;5.90;81.60;;;;;;4932495;29;20083;-67
2022/03/16 03:12:15;;;;;;;32.78;23.38;;;5.90;81.80;;;;;;4926376;29;20123;-67
2022/03/16 03:14:41;;;;;;;38.08;23.58;;;5.90;81.80;;;;;;4913220;29;20054;-66
2022/03/16 03:17:07;;;;;;;31.52;23.05;;;5.90;82.00;;;;;;4914166;29;20050;-65
2022/03/16 03:19:33;;;;;;;34.40;24.80;;;5.90;82.00;;;;;;4923648;29;20050;-67
2022/03/16 03:21:58;;;;;;;38.38;25.65;;;5.90;82.10;;;;;;4918490;29;20052;-66
2022/03/16 03:24:24;;;;;;;34.67;24.63;;;5.90;82.00;;;;;;4919536;29;20099;-68
2022/03/16 03:26:50;;;;;;;33.17;23.92;;;5.90;82.00;;;;;;4928093;29;20047;-65
2022/03/16 03:29:16;;;;;;;32.35;23.13;;;5.90;82.20;;;;;;4931196;29;20036;-66
2022/03/16 03:31:42;;;;;;;34.00;25.17;;;5.90;82.20;;;;;;4927582;29;20040;-67
2022/03/16 03:34:08;;;;;;;30.60;22.20;;;5.90;82.30;;;;;;4913598;29;20095;-66
2022/03/16 03:36:33;;;;;;;34.13;23.33;;;5.90;82.30;;;;;;4934944;29;20043;-67
2022/03/16 03:38:59;;;;;;;36.75;22.90;;;5.90;82.20;;;;;;4920675;29;20075;-66
2022/03/16 03:41:25;;;;;;;34.75;23.90;;;5.90;82.30;;;;;;4932949;29;20464;-67
2022/03/16 03:43:50;;;;;;;29.10;22.48;;;5.90;82.30;;;;;;4916476;29;20131;-66
2022/03/16 03:46:16;;;;;;;35.35;26.42;;;5.90;82.40;;;;;;4920813;29;20777;-66
2022/03/16 03:48:42;;;;;;;33.60;24.15;;;5.90;82.50;;;;;;4909405;29;20044;-66
2022/03/16 03:51:07;;;;;;;35.85;24.98;;;5.90;82.60;;;;;;4931842;29;20044;-66
2022/03/16 03:53:33;;;;;;;37.42;23.77;;;5.90;82.50;;;;;;4926721;29;20111;-66
2022/03/16 03:55:59;;;;;;;34.08;24.48;;;5.90;82.60;;;;;;4934868;29;20040;-66
2022/03/16 03:58:25;;;;;;;31.58;23.98;;;5.90;82.50;;;;;;4934170;29;20050;-67
2022/03/16 04:00:50;;;;;;;36.03;25.35;;;5.90;82.50;;;;;;4933668;29;20043;-67
2022/03/16 04:03:16;;;;;;;33.03;23.95;;;5.90;82.50;;;;;;4903500;29;20102;-66
2022/03/16 04:05:42;;;;;;;34.25;25.60;;;5.90;82.60;;;;;;4928679;29;20036;-65
2022/03/16 04:08:07;;;;;;;33.75;24.30;;;5.80;82.60;;;;;;4929457;29;20127;-66
2022/03/16 04:10:36;;;;;;;32.13;24.92;;;5.90;82.70;;;;;;4916900;29;20044;-68
2022/03/16 04:13:02;;;;;;;74.18;21.73;;;5.90;82.70;;;;;;4926629;29;20066;-67
2022/03/16 04:15:28;;;;;;;30.60;22.77;;;5.90;82.60;;;;;;4915742;29;20080;-67
2022/03/16 04:17:54;;;;;;;30.67;22.73;;;5.80;82.50;;;;;;4915947;29;20509;-67
2022/03/16 04:20:19;;;;;;;28.10;21.92;;;5.80;82.70;;;;;;4927830;29;20032;-67
2022/03/16 04:22:45;;;;;;;28.33;21.45;;;5.70;82.70;;;;;;4922394;29;20470;-67
2022/03/16 04:25:11;;;;;;;26.73;20.45;;;5.70;82.80;;;;;;4930935;29;20495;-66
2022/03/16 04:27:37;;;;;;;27.75;20.77;;;5.70;82.80;;;;;;4934246;29;20062;-67
2022/03/16 04:30:03;;;;;;;29.75;19.73;;;5.60;82.80;;;;;;4930829;29;20040;-66
2022/03/16 04:32:29;;;;;;;22.35;18.30;;;5.60;82.90;;;;;;4915845;29;20124;-67
2022/03/16 04:34:54;;;;;;;20.88;18.33;;;5.60;82.80;;;;;;4916543;29;20135;-68
2022/03/16 04:37:20;;;;;;;24.35;20.30;;;5.60;82.90;;;;;;4926255;29;20047;-67
2022/03/16 04:39:45;;;;;;;27.38;20.98;;;5.60;83.00;;;;;;4933429;29;20472;-66
2022/03/16 04:42:11;;;;;;;26.60;20.02;;;5.60;83.00;;;;;;4921224;29;20087;-67
2022/03/16 04:44:37;;;;;;;27.95;21.73;;;5.60;82.90;;;;;;4932636;29;20036;-67
2022/03/16 04:47:02;;;;;;;28.60;22.38;;;5.60;83.00;;;;;;4916449;29;20083;-67
2022/03/16 04:49:28;;;;;;;29.42;21.10;;;5.60;83.20;;;;;;4914923;29;20052;-66
2022/03/16 04:51:54;;;;;;;28.23;20.50;;;5.60;83.10;;;;;;4919204;29;20044;-67
2022/03/16 04:54:19;;;;;;;25.83;20.83;;;5.60;83.10;;;;;;4924490;29;20557;-67
2022/03/16 04:56:45;;;;;;;26.20;20.80;;;5.60;83.10;;;;;;4929070;29;20055;-67
2022/03/16 04:59:10;;;;;;;24.98;21.08;;;5.60;83.20;;;;;;4933934;29;20409;-67
2022/03/16 05:01:36;;;;;;;31.40;22.00;;;5.60;83.10;;;;;;4919484;29;20044;-66
2022/03/16 05:04:02;;;;;;;30.27;20.58;;;5.60;83.20;;;;;;4933082;29;20204;-67
2022/03/16 05:06:27;;;;;;;27.08;20.63;;;5.60;83.20;;;;;;4932770;29;20559;-66
2022/03/16 05:08:53;;;;;;;25.25;19.73;;;5.60;83.10;;;;;;4933378;29;20138;-67
2022/03/16 05:11:22;;;;;;;23.10;18.60;;;5.50;83.20;;;;;;4920644;29;20051;-67
2022/03/16 05:13:49;;;;;;;27.23;19.73;;;5.50;83.20;;;;;;4932359;29;20054;-67
2022/03/16 05:16:15;;;;;;;25.70;19.30;;;5.50;83.30;;;;;;4915669;29;20040;-67
2022/03/16 05:18:44;;;;;;;22.83;18.25;;;5.50;83.30;;;;;;4919503;29;20043;-67
2022/03/16 05:21:11;;;;;;;24.23;19.65;;;5.50;83.30;;;;;;4916014;29;20132;-66
2022/03/16 05:23:38;;;;;;;25.08;19.60;;;5.50;83.30;;;;;;4916293;29;20044;-67
2022/03/16 05:26:04;;;;;;;27.88;18.85;;;5.50;83.30;;;;;;4914201;29;20060;-67
2022/03/16 05:28:30;;;;;;;31.38;19.20;;;5.50;83.20;;;;;;4882052;29;20052;-67
2022/03/16 05:30:55;;;;;;;28.35;19.20;;;5.60;83.30;;;;;;4914485;29;20040;-67
2022/03/16 05:33:23;;;;;;;26.70;20.75;;;5.60;83.20;;;;;;4917812;29;20036;-67
2022/03/16 05:35:49;;;;;;;28.08;21.52;;;5.60;83.30;;;;;;4933516;29;20102;-67
2022/03/16 05:38:14;;;;;;;26.70;20.42;;;5.60;83.30;;;;;;4918811;29;20044;-67
2022/03/16 05:40:41;;;;;;;24.80;19.92;;;5.60;83.30;;;;;;4920603;29;20078;-67
2022/03/16 05:43:08;;;;;;;26.25;20.75;;;5.60;83.20;;;;;;4918670;29;20044;-67
2022/03/16 05:45:34;;;;;;;26.60;20.20;;;5.60;83.10;;;;;;4921620;29;20052;-66
2022/03/16 05:48:00;;;;;;;24.17;19.75;;;5.60;83.20;;;;;;4922433;29;20044;-67
2022/03/16 05:50:28;;;;;;;28.58;21.42;;;5.60;83.30;;;;;;4896469;29;20055;-67
2022/03/16 05:52:58;;;;;;;33.65;21.98;;;5.60;83.30;;;;;;4909731;29;20532;-65
2022/03/16 05:55:24;;;;;;;28.52;21.73;;;5.60;83.30;;;;;;4912137;29;20080;-67
2022/03/16 05:57:50;;;;;;;29.80;23.40;;;5.60;83.30;;;;;;4913578;29;20048;-66
2022/03/16 06:00:20;;;;;;;35.90;24.77;;;5.60;83.20;;;;;;4912779;29;20040;-66
2022/03/16 06:02:48;;;;;;;33.45;23.13;;;5.60;83.20;;;;;;4912661;29;20048;-67
2022/03/16 06:05:14;;;;;;;30.38;23.67;;;5.60;83.20;;;;;;4913289;29;20633;-67
2022/03/16 06:07:40;;;;;;;28.42;22.27;;;5.60;83.30;;;;;;4909820;29;20047;-66
2022/03/16 06:10:09;;;;;;;31.35;21.92;;;5.60;83.20;;;;;;4913569;29;20043;-67
2022/03/16 06:12:48;;;;;;;35.10;23.42;;;5.60;83.20;;;;;;4909377;29;20055;-67
2022/03/16 06:15:14;;;;;;;32.22;23.05;;;5.60;83.20;;;;;;4913254;29;20055;-67
2022/03/16 06:17:39;;;;;;;28.67;22.10;;;5.60;83.20;;;;;;4908898;29;20040;-67
2022/03/16 06:20:05;;;;;;;36.20;24.40;;;5.60;83.20;;;;;;4896344;29;20093;-66
2022/03/16 06:22:33;;;;;;;34.72;24.30;;;5.60;83.20;;;;;;4911290;29;20504;-67
2022/03/16 06:24:58;;;;;;;30.65;22.75;;;5.60;83.30;;;;;;4913729;29;20051;-67
2022/03/16 06:27:24;;;;;;;32.38;23.65;;;5.50;83.40;;;;;;4911867;29;20044;-67
2022/03/16 06:29:50;;;;;;;30.30;22.90;;;5.60;83.50;;;;;;4913673;29;20072;-66
2022/03/16 06:32:15;;;;;;;36.28;25.70;;;5.60;83.50;;;;;;4892937;29;20048;-66
2022/03/16 06:34:41;;;;;;;33.78;23.38;;;5.60;83.60;;;;;;4908809;29;20041;-66
2022/03/16 06:37:06;;;;;;;32.97;24.58;;;5.70;83.60;;;;;;4913035;29;20561;-66
2022/03/16 06:39:32;;;;;;;30.48;23.83;;;5.70;83.70;;;;;;4896435;29;20055;-67
2022/03/16 06:41:58;;;;;;;35.80;25.83;;;5.60;83.60;;;;;;4912755;29;20090;-68
2022/03/16 06:44:23;;;;;;;30.70;23.63;;;5.70;83.70;;;;;;4898754;29;20426;-67
2022/03/16 06:46:49;;;;;;;35.88;24.77;;;5.70;83.70;;;;;;4895080;29;20048;-67
2022/03/16 06:49:15;;;;;;;36.55;25.52;;;5.70;83.80;;;;;;4882935;29;20425;-67
2022/03/16 06:51:40;;;;;;;36.90;25.55;;;5.70;83.90;;;;;;4927242;29;20083;-67
2022/03/16 06:54:06;;;;;;;33.20;25.08;;;5.80;84.00;;;;;;4914259;29;20052;-68
2022/03/16 06:56:31;;;;;;;35.22;25.15;;;5.90;84.00;;;;;;4928573;29;20383;-67
2022/03/16 06:58:57;;;;;;;36.47;24.65;;;5.90;84.10;;;;;;4922721;29;20052;-68
2022/03/16 07:01:23;;;;;;;37.70;25.60;;;5.90;84.10;;;;;;4930993;29;20056;-67
2022/03/16 07:03:48;;;;;;;36.92;26.10;;;5.90;84.30;;;;;;4924280;29;20394;-67
2022/03/16 07:06:14;;;;;;;38.78;26.25;;;6.00;84.40;;;;;;4924516;29;20733;-68
2022/03/16 07:08:39;;;;;;;30.65;25.23;;;6.00;84.30;;;;;;4927099;29;20056;-68
2022/03/16 07:11:07;;;;;;;34.60;25.67;;;6.00;84.20;;;;;;4914403;29;20054;-68
2022/03/16 07:13:33;;;;;;;35.13;25.80;;;6.10;84.20;;;;;;4931970;29;20111;-67
2022/03/16 07:15:59;;;;;;;37.83;26.05;;;6.10;84.30;;;;;;4935341;29;20397;-67
2022/03/16 07:18:25;;;;;;;34.50;26.25;;;6.20;84.40;;;;;;4917211;29;20099;-68
2022/03/16 07:20:50;;;;;;;33.88;25.85;;;6.30;84.90;;;;;;4935282;29;20036;-68
2022/03/16 07:23:20;;;;;;;38.75;27.27;;;6.40;84.60;;;;;;4932421;29;20075;-68
2022/03/16 07:25:48;;;;;;;33.08;26.00;;;6.50;84.50;;;;;;4935086;29;20048;-68
2022/03/16 07:28:15;;;;;;;32.90;26.25;;;6.60;84.40;;;;;;4929638;29;20067;-68
2022/03/16 07:30:42;;;;;;;36.47;27.23;;;6.60;84.40;;;;;;4931990;29;20040;-67
2022/03/16 07:33:08;;;;;;;33.15;25.55;;;6.60;84.40;;;;;;4934394;29;20086;-68
2022/03/16 07:35:35;;;;;;;35.20;26.23;;;6.60;84.40;;;;;;4919865;29;20075;-68
2022/03/16 07:38:02;;;;;;;35.88;26.55;;;6.70;84.40;;;;;;4916762;29;20044;-68
2022/03/16 07:40:30;;;;;;;39.80;27.13;;;6.70;84.50;;;;;;4928973;29;20432;-69
2022/03/16 07:42:56;;;;;;;37.28;26.48;;;6.80;84.50;;;;;;4932520;29;20135;-67
2022/03/16 07:45:22;;;;;;;34.33;26.00;;;6.90;84.50;;;;;;4921092;29;20139;-68
2022/03/16 07:47:50;;;;;;;34.60;27.42;;;6.90;84.50;;;;;;4923937;29;20430;-68
2022/03/16 07:50:17;;;;;;;34.70;26.52;;;6.90;84.70;;;;;;4933697;29;20048;-68
2022/03/16 07:52:43;;;;;;;37.47;27.45;;;7.00;84.70;;;;;;4933956;29;20051;-68
2022/03/16 07:55:09;;;;;;;35.50;27.75;;;7.10;84.70;;;;;;4923090;29;21340;-67
2022/03/16 07:57:36;;;;;;;38.60;29.17;;;7.10;84.80;;;;;;4915475;29;20618;-68
2022/03/16 08:00:08;;;;;;;38.90;27.98;;;7.20;84.70;;;;;;4923479;29;20083;-67
2022/03/16 08:02:33;;;;;;;36.40;28.50;;;7.30;84.70;;;;;;4934590;29;20412;-67
2022/03/16 08:05:00;;;;;;;37.65;30.75;;;7.30;84.70;;;;;;4917146;29;20040;-66
2022/03/16 08:07:29;;;;;;;40.25;29.25;;;7.40;84.70;;;;;;4929710;29;20066;-67
2022/03/16 08:09:59;;;;;;;34.40;28.23;;;7.40;84.80;;;;;;4926108;29;20044;-67
2022/03/16 08:12:25;;;;;;;40.78;31.58;;;7.50;84.80;;;;;;4922379;29;20068;-67
2022/03/16 08:14:51;;;;;;;46.28;33.70;;;7.60;84.80;;;;;;4920819;29;20083;-68
2022/03/16 08:17:17;;;;;;;40.78;32.25;;;7.60;84.90;;;;;;4926327;29;20044;-68
2022/03/16 08:19:42;;;;;;;39.72;31.83;;;7.70;85.00;;;;;;4923854;29;20516;-68
2022/03/16 08:22:08;;;;;;;43.75;32.35;;;7.80;84.90;;;;;;4932684;29;20044;-69
2022/03/16 08:24:35;;;;;;;41.63;33.80;;;7.90;85.20;;;;;;4924569;29;20079;-68
2022/03/16 08:27:00;;;;;;;43.42;34.45;;;8.00;85.20;;;;;;4928280;29;20040;-68
2022/03/16 08:29:26;;;;;;;41.33;32.45;;;8.10;85.10;;;;;;4921544;29;20044;-69
2022/03/16 08:31:52;;;;;;;42.90;33.55;;;8.20;85.10;;;;;;4928396;29;20040;-68
2022/03/16 08:34:18;;;;;;;36.22;30.65;;;8.40;84.90;;;;;;4921382;29;20051;-68
2022/03/16 08:36:44;;;;;;;37.47;29.92;;;8.50;84.90;;;;;;4914437;29;20056;-69
2022/03/16 08:39:10;;;;;;;36.67;27.65;;;8.50;84.90;;;;;;4922769;29;20099;-69
2022/03/16 08:41:36;;;;;;;37.65;27.33;;;8.60;84.70;;;;;;4924049;29;20052;-69
2022/03/16 08:44:02;;;;;;;32.75;25.73;;;8.60;84.60;;;;;;4924952;29;20438;-69
2022/03/16 08:46:29;;;;;;;30.88;24.25;;;8.60;84.50;;;;;;4921266;29;20043;-68
2022/03/16 08:48:55;;;;;;;28.48;22.92;;;8.70;84.40;;;;;;4924736;29;20047;-69
2022/03/16 08:51:21;;;;;;;29.55;22.35;;;8.70;84.30;;;;;;4914378;29;20405;-69
2022/03/16 08:53:47;;;;;;;24.75;21.38;;;8.80;84.10;;;;;;4918867;29;20048;-69
2022/03/16 08:56:13;;;;;;;21.58;18.70;;;8.80;84.00;;;;;;4924249;29;20099;-69
2022/03/16 08:58:39;;;;;;;29.75;22.85;;;8.90;83.90;;;;;;4914232;29;20105;-68
2022/03/16 09:01:05;;;;;;;25.13;20.63;;;9.10;83.70;;;;;;4915686;29;20597;-70
2022/03/16 09:03:31;;;;;;;26.65;21.05;;;9.10;83.60;;;;;;4915612;29;20052;-67
2022/03/16 09:05:57;;;;;;;30.15;19.27;;;9.20;83.30;;;;;;4924268;29;20040;-67
2022/03/16 09:08:23;;;;;;;23.38;18.77;;;9.30;83.00;;;;;;4919888;29;20432;-67
2022/03/16 09:10:49;;;;;;;24.45;18.95;;;9.50;82.60;;;;;;4915147;29;20194;-69
2022/03/16 09:13:15;;;;;;;30.48;19.05;;;9.50;82.20;;;;;;4914568;29;20044;-66
2022/03/16 09:15:43;;;;;;;27.40;20.17;;;9.60;82.00;;;;;;4924448;29;20056;-69
2022/03/16 09:18:09;;;;;;;24.42;19.52;;;9.70;81.70;;;;;;4928664;29;20383;-70
2022/03/16 09:20:36;;;;;;;21.73;17.50;;;9.80;81.50;;;;;;4913668;29;20425;-69
2022/03/16 09:23:01;;;;;;;25.17;17.80;;;10.00;81.40;;;;;;4925787;29;20051;-70
2022/03/16 09:25:27;;;;;;;20.33;16.20;;;10.00;81.00;;;;;;4927627;29;20043;-69
2022/03/16 09:27:53;;;;;;;22.55;15.85;;;10.10;80.30;;;;;;4918689;29;20139;-69
2022/03/16 09:30:19;;;;;;;23.80;15.85;;;10.10;79.70;;;;;;4882941;29;20075;-72
2022/03/16 09:32:45;;;;;;;22.60;16.23;;;10.20;79.60;;;;;;4931198;29;20067;-68
2022/03/16 09:35:11;;;;;;;21.85;16.85;;;10.30;79.20;;;;;;4920297;29;20077;-70
2022/03/16 09:37:37;;;;;;;23.20;17.45;;;10.40;79.10;;;;;;4914219;29;20511;-70
2022/03/16 09:40:04;;;;;;;25.70;17.27;;;10.50;78.90;;;;;;4929733;29;20059;-69
2022/03/16 09:42:31;;;;;;;21.42;15.40;;;10.60;78.60;;;;;;4931022;29;20059;-69
2022/03/16 09:45:01;;;;;;;20.50;14.45;;;10.70;78.30;;;;;;4931081;29;20094;-67
2022/03/16 09:47:27;;;;;;;19.48;14.35;;;10.80;78.00;;;;;;4922044;29;20130;-70
2022/03/16 09:49:53;;;;;;;23.80;15.07;;;10.90;77.90;;;;;;4946492;29;20671;-70
2022/03/16 09:52:19;;;;;;;22.48;15.52;;;11.00;77.50;;;;;;4920779;29;20055;-68
2022/03/16 09:54:46;;;;;;;17.33;14.18;;;11.10;77.20;;;;;;4881058;29;20524;-69
2022/03/16 09:57:12;;;;;;;21.70;15.35;;;11.10;76.40;;;;;;4930595;29;20648;-69
2022/03/16 09:59:38;;;;;;;31.02;15.10;;;11.20;76.50;;;;;;4931117;29;20142;-68
2022/03/16 10:02:06;;;;;;;17.02;13.27;;;11.20;76.10;;;;;;4917423;29;20044;-69
2022/03/16 10:04:34;;;;;;;18.92;13.35;;;11.30;75.50;;;;;;4913204;29;20059;-69
2022/03/16 10:07:00;;;;;;;17.40;8.55;;;11.30;74.80;;;;;;4914061;29;20452;-68
2022/03/16 10:15:14;;;;;;;17.98;13.23;;;11.90;72.80;;;;;;4913067;29;20057;-70
2022/03/16 10:17:43;;;;;;;18.23;12.25;;;11.80;72.40;;;;;;4913204;29;20052;-70
2022/03/16 10:20:21;;;;;;;16.77;11.77;;;11.80;71.40;;;;;;4913048;29;20044;-70
2022/03/16 10:23:02;;;;;;;16.48;11.60;;;11.80;71.90;;;;;;4912853;29;20178;-70
2022/03/16 10:25:31;;;;;;;18.95;12.27;;;11.80;71.60;;;;;;4915582;29;20050;-70
2022/03/16 10:28:17;;;;;;;18.52;11.27;;;11.80;71.30;;;;;;4924644;29;20054;-70
2022/03/16 10:31:05;;;;;;;18.42;11.48;;;11.90;70.90;;;;;;4915121;29;20106;-69
2022/03/16 10:33:33;;;;;;;16.55;11.00;;;11.90;70.80;;;;;;4931933;29;20048;-69
2022/03/16 10:36:06;;;;;;;15.18;11.88;;;11.80;71.10;;;;;;4931521;29;20505;-69
2022/03/16 10:38:51;;;;;;;15.68;11.75;;;11.90;70.80;;;;;;4931881;29;20139;-69
2022/03/16 10:47:24;;;;;;;14.05;10.60;;;12.20;69.90;;;;;;4913575;29;20081;-68
2022/03/16 10:50:07;;;;;;;13.35;10.23;;;12.20;69.40;;;;;;4931533;29;20052;-68
2022/03/16 10:52:34;;;;;;;14.48;9.98;;;12.20;68.70;;;;;;4924873;29;20059;-69
2022/03/16 10:55:02;;;;;;;16.50;10.35;;;12.20;68.60;;;;;;4918405;29;20040;-68
2022/03/16 10:57:30;;;;;;;16.17;9.88;;;12.30;69.10;;;;;;4927755;29;20151;-68
2022/03/16 10:59:58;;;;;;;14.88;10.55;;;12.30;68.90;;;;;;4923831;29;20056;-69
2022/03/16 11:02:29;;;;;;;14.88;10.38;;;12.40;68.70;;;;;;4912578;29;20053;-72
2022/03/16 11:04:57;;;;;;;17.13;10.55;;;12.50;69.00;;;;;;4915592;29;20059;-69
2022/03/16 11:07:24;;;;;;;13.80;9.52;;;12.60;68.40;;;;;;4928162;29;20055;-69
2022/03/16 11:09:52;;;;;;;18.58;10.05;;;12.60;67.30;;;;;;4898738;29;20094;-69
2022/03/16 11:15:05;;;;;;;12.07;9.40;;;12.80;66.60;;;;;;4920837;29;20048;-68
2022/03/16 11:17:32;;;;;;;16.17;9.30;;;12.80;66.80;;;;;;4927292;29;20645;-67
2022/03/16 11:20:00;;;;;;;14.23;8.43;;;12.90;65.80;;;;;;4915507;29;20044;-69
2022/03/16 11:22:34;;;;;;;17.77;9.10;;;13.00;65.80;;;;;;4931357;29;20418;-70
2022/03/16 11:25:10;;;;;;;15.48;9.75;;;13.00;65.10;;;;;;4928280;29;21602;-69
2022/03/16 11:27:53;;;;;;;13.63;9.32;;;13.10;64.80;;;;;;4926859;29;20076;-69
2022/03/16 11:30:35;;;;;;;12.43;9.43;;;13.10;64.30;;;;;;4918798;29;20044;-69
2022/03/16 11:33:11;;;;;;;18.67;8.25;;;13.20;64.60;;;;;;4913914;29;20107;-70
2022/03/16 11:35:44;;;;;;;12.90;9.23;;;13.20;64.30;;;;;;4926853;29;20044;-69
2022/03/16 11:38:15;;;;;;;12.23;9.10;;;13.10;63.40;;;;;;4912534;29;20121;-69
2022/03/16 11:40:47;;;;;;;10.75;7.78;;;13.20;64.60;;;;;;4924930;29;20035;-69
2022/03/16 11:43:16;;;;;;;12.88;8.40;;;13.30;63.90;;;;;;4912643;29;20051;-69
2022/03/16 11:45:54;;;;;;;11.95;8.32;;;13.20;63.20;;;;;;4914564;29;20040;-70
2022/03/16 11:51:11;;;;;;;11.70;8.10;;;13.30;62.10;;;;;;4944691;29;20079;-69
2022/03/16 11:53:46;;;;;;;14.00;8.93;;;13.30;61.20;;;;;;4912313;29;20060;-69
2022/03/16 11:56:35;;;;;;;10.95;8.05;;;13.40;61.50;;;;;;4912592;29;20044;-68
2022/03/16 11:59:09;;;;;;;11.00;8.23;;;13.60;61.20;;;;;;4909802;29;20517;-69
2022/03/16 12:01:39;;;;;;;12.85;8.35;;;13.50;61.40;;;;;;4918578;29;20094;-69
2022/03/16 12:04:22;;;;;;;11.85;8.25;;;13.60;61.90;;;;;;4925291;29;20400;-70
2022/03/16 12:06:53;;;;;;;12.00;8.60;;;13.60;62.00;;;;;;4926220;29;20042;-70
2022/03/16 12:09:45;;;;;;;13.70;9.13;;;13.60;62.00;;;;;;4934437;29;20039;-69
2022/03/16 12:15:37;;;;;;;14.02;7.97;;;13.80;61.50;;;;;;4902686;29;20059;-70
2022/03/16 12:18:07;;;;;;;14.25;9.07;;;13.90;61.80;;;;;;4915029;29;20048;-70
2022/03/16 12:20:37;;;;;;;13.43;8.70;;;13.90;61.40;;;;;;4914578;29;20056;-69
2022/03/16 12:23:10;;;;;;;15.60;8.88;;;13.90;60.30;;;;;;4931756;29;20124;-69
2022/03/16 12:25:40;;;;;;;11.15;8.55;;;14.00;61.10;;;;;;4932532;29;20067;-71
2022/03/16 12:31:19;;;;;;;13.00;8.07;;;14.10;60.30;;;;;;4934409;29;20056;-71
2022/03/16 12:33:52;;;;;;;13.32;9.15;;;14.10;60.20;;;;;;4934348;29;20079;-71
2022/03/16 12:36:21;;;;;;;10.85;8.65;;;14.10;60.20;;;;;;4932757;29;20493;-71
2022/03/16 12:39:03;;;;;;;12.23;8.57;;;14.20;60.50;;;;;;4933333;29;20055;-70
2022/03/16 12:44:16;;;;;;;10.43;8.23;;;14.30;60.10;;;;;;4954104;28;20047;-69
2022/03/16 12:47:06;;;;;;;12.80;8.45;;;14.40;60.20;;;;;;4920548;29;20058;-70
2022/03/16 12:49:46;;;;;;;14.27;9.35;;;14.60;59.30;;;;;;4921318;29;20135;-71
2022/03/16 12:52:12;;;;;;;14.90;9.77;;;14.60;59.40;;;;;;4896954;29;20342;-71
2022/03/16 12:54:40;;;;;;;11.30;7.95;;;14.60;58.60;;;;;;4914510;29;20108;-71
2022/03/16 12:57:11;;;;;;;16.77;9.43;;;14.60;57.90;;;;;;4909607;29;20527;-71
2022/03/16 12:59:47;;;;;;;12.45;9.52;;;14.60;58.30;;;;;;4915254;29;20074;-72
2022/03/16 13:02:13;;;;;;;11.18;8.70;;;14.60;58.40;;;;;;4915210;29;20048;-72
2022/03/16 13:04:43;;;;;;;13.85;9.73;;;14.60;58.20;;;;;;4915723;29;20044;-72